Time;durP1;ratioP1;P1;durP2;ratioP2;P2;SDS_P1;SDS_P2;PMS_P1;PMS_P2;Temp;Humidity;BMP_temperature;BMP_pressure;BME280_temperature;BME280_humidity;BME280_pressure;Samples;Min_cycle;Max_cycle;Signal;HPM_P1;HPM_P2
2022/06/23 00:00:08;;;;;;;;;;;;;;;18.98;86.60;98857.56;7783000;30;20025;-77
2022/06/23 00:04:15;;;;;;;;;;;;;;;18.80;86.91;98857.56;7763284;30;20342;-78
2022/06/23 00:08:20;;;;;;;;;;;;;;;18.70;87.46;98860.66;7798658;30;19977;-78
2022/06/23 00:12:27;;;;;;;;;;;;;;;18.61;87.53;98863.66;7782001;30;19939;-77
2022/06/23 00:16:33;;;;;;;;;;;;;;;18.55;88.70;98865.72;7778411;30;19970;-77
2022/06/23 00:20:49;;;;;;;;;;;;;;;18.53;88.34;98860.53;7785434;30;20009;-77
2022/06/23 00:24:55;;;;;;;;;;;;;;;18.44;88.63;98855.66;7799545;30;19939;-75
2022/06/23 00:28:58;;;;;;;;;;;;;;;18.39;89.04;98865.53;7783117;30;20054;-77
2022/06/23 00:33:14;;;;;;;;;;;;;;;18.27;89.04;98856.41;7777902;30;19939;-77
2022/06/23 00:37:20;;;;;;;;;;;;;;;18.24;89.49;98861.81;7781211;30;19935;-77
2022/06/23 00:41:23;;;;;;;;;;;;;;;18.17;89.67;98854.28;7798231;30;19962;-77
2022/06/23 00:45:57;;;;;;;;;;;;;;;18.18;89.58;98858.63;7787564;30;19942;-77
2022/06/23 00:50:02;;;;;;;;;;;;;;;18.06;89.67;98868.72;7781362;30;19934;-77
2022/06/23 00:54:09;;;;;;;;;;;;;;;17.98;89.97;98870.00;7794949;30;19993;-77
2022/06/23 00:58:25;;;;;;;;;;;;;;;17.82;90.49;98877.66;7798654;30;20409;-77
2022/06/23 01:02:33;;;;;;;;;;;;;;;17.82;92.05;98872.41;7773935;30;19945;-77
2022/06/23 01:06:38;;;;;;;;;;;;;;;17.81;91.97;98871.56;7773920;30;20333;-77
2022/06/23 01:10:59;;;;;;;;;;;;;;;17.75;92.19;98874.41;7793032;30;19993;-77
2022/06/23 01:15:18;;;;;;;;;;;;;;;17.68;91.62;98872.97;7793395;30;20389;-77
2022/06/23 01:19:23;;;;;;;;;;;;;;;17.62;91.91;98867.09;7797014;30;19935;-77
2022/06/23 01:23:42;;;;;;;;;;;;;;;17.61;91.48;98866.25;7779934;30;19936;-77
2022/06/23 01:27:47;;;;;;;;;;;;;;;17.61;91.12;98875.91;7780596;30;19985;-77
2022/06/23 01:31:55;;;;;;;;;;;;;;;17.55;90.42;98876.13;7789049;30;19951;-77
2022/06/23 01:36:01;;;;;;;;;;;;;;;17.53;90.93;98869.16;7796217;30;20351;-77
2022/06/23 01:40:11;;;;;;;;;;;;;;;17.52;90.87;98867.47;7797663;30;19935;-77
2022/06/23 01:44:16;;;;;;;;;;;;;;;17.49;91.23;98878.09;7795675;30;19938;-77
2022/06/23 01:49:07;;;;;;;;;;;;;;;17.44;91.41;98872.19;7787914;30;20005;-77
2022/06/23 01:53:22;;;;;;;;;;;;;;;17.35;91.01;98869.91;7788731;30;19942;-77
2022/06/23 01:57:24;;;;;;;;;;;;;;;17.27;91.21;98869.38;7781685;30;19945;-77
2022/06/23 02:01:38;;;;;;;;;;;;;;;17.19;91.75;98868.81;7786432;30;19974;-77
2022/06/23 02:05:40;;;;;;;;;;;;;;;17.16;91.43;98868.94;7789259;30;19934;-77
2022/06/23 02:09:47;;;;;;;;;;;;;;;17.11;90.91;98874.38;7802242;30;19977;-77
2022/06/23 02:13:53;;;;;;;;;;;;;;;17.06;91.44;98867.63;7795369;30;19935;-77
2022/06/23 02:18:11;;;;;;;;;;;;;;;17.02;90.66;98868.63;7783661;30;19942;-77
2022/06/23 02:22:21;;;;;;;;;;;;;;;16.91;90.88;98874.31;7780191;30;19935;-76
2022/06/23 02:26:26;;;;;;;;;;;;;;;16.86;92.35;98869.22;7796842;30;19957;-76
2022/06/23 02:30:31;;;;;;;;;;;;;;;16.87;91.88;98881.41;7787826;30;19934;-76
2022/06/23 02:34:41;;;;;;;;;;;;;;;16.86;92.31;98886.72;7794555;30;19939;-77
2022/06/23 02:38:46;;;;;;;;;;;;;;;16.85;92.71;98885.00;7793594;30;20408;-77
2022/06/23 02:42:54;;;;;;;;;;;;;;;16.74;92.27;98893.28;7798476;30;19974;-76
2022/06/23 02:47:06;;;;;;;;;;;;;;;16.72;92.71;98889.03;7786320;30;19945;-75
2022/06/23 02:51:09;;;;;;;;;;;;;;;16.66;93.02;98890.06;7791158;30;19945;-76
2022/06/23 02:55:20;;;;;;;;;;;;;;;16.67;92.65;98890.94;7793352;30;19935;-76
2022/06/23 02:59:35;;;;;;;;;;;;;;;16.66;93.13;98887.44;7796215;30;19935;-76
2022/06/23 03:03:44;;;;;;;;;;;;;;;16.64;93.08;98884.00;7758133;30;20009;-76
2022/06/23 03:07:57;;;;;;;;;;;;;;;16.58;93.43;98886.88;7791754;30;19934;-76
2022/06/23 03:12:23;;;;;;;;;;;;;;;16.70;93.25;98890.84;7783170;30;19992;-76
2022/06/23 03:16:33;;;;;;;;;;;;;;;16.74;93.51;98884.56;7782818;30;19941;-76
2022/06/23 03:20:37;;;;;;;;;;;;;;;16.71;93.98;98887.31;7786062;30;19973;-77
2022/06/23 03:25:02;;;;;;;;;;;;;;;16.68;93.94;98893.50;7786173;30;20388;-76
2022/06/23 03:29:08;;;;;;;;;;;;;;;16.70;94.21;98890.84;7732927;30;19934;-76
2022/06/23 03:33:09;;;;;;;;;;;;;;;16.70;94.68;98893.47;7769448;30;20423;-77
2022/06/23 03:37:14;;;;;;;;;;;;;;;16.69;94.83;98895.22;7784420;30;19947;-77
2022/06/23 03:45:55;;;;;;;;;;;;;;;16.82;95.65;98898.25;7796917;30;19942;-76
2022/06/23 03:50:16;;;;;;;;;;;;;;;16.81;95.35;98891.28;7809795;30;19996;-77
2022/06/23 03:54:21;;;;;;;;;;;;;;;16.77;95.11;98890.56;7794820;30;19946;-77
2022/06/23 03:58:29;;;;;;;;;;;;;;;16.82;95.23;98890.38;7775449;30;19997;-76
2022/06/23 04:02:37;;;;;;;;;;;;;;;16.79;94.63;98895.72;7777197;30;19935;-77
2022/06/23 04:06:39;;;;;;;;;;;;;;;16.79;94.53;98893.97;7779615;30;20037;-76
2022/06/23 04:10:42;;;;;;;;;;;;;;;16.82;94.03;98898.25;7779867;30;20029;-77
2022/06/23 04:14:55;;;;;;;;;;;;;;;16.81;94.21;98893.91;7779928;30;19945;-76
2022/06/23 04:18:56;;;;;;;;;;;;;;;16.84;94.42;98896.41;7776284;30;20022;-77
2022/06/23 04:23:13;;;;;;;;;;;;;;;16.84;94.22;98910.38;7795874;30;19973;-76
2022/06/23 04:27:38;;;;;;;;;;;;;;;16.88;94.42;98913.75;7761863;30;19934;-76
2022/06/23 04:31:42;;;;;;;;;;;;;;;16.96;95.38;98914.31;7781881;30;19962;-77
2022/06/23 04:35:47;;;;;;;;;;;;;;;17.09;95.47;98912.94;7790416;30;20350;-76
2022/06/23 04:39:53;;;;;;;;;;;;;;;17.24;95.18;98913.28;7779560;30;20027;-76
2022/06/23 04:43:57;;;;;;;;;;;;;;;17.42;94.51;98912.53;7797356;30;20684;-77
2022/06/23 04:48:00;;;;;;;;;;;;;;;17.61;94.19;98904.78;7795928;30;19935;-76
2022/06/23 04:52:02;;;;;;;;;;;;;;;17.73;93.92;98904.28;7792766;30;20306;-77
2022/06/23 04:56:12;;;;;;;;;;;;;;;17.88;93.28;98911.53;7791639;30;20654;-76
2022/06/23 05:00:23;;;;;;;;;;;;;;;18.05;92.94;98921.34;7788800;30;19949;-76
2022/06/23 05:04:27;;;;;;;;;;;;;;;18.23;92.07;98912.66;7777653;30;19979;-76
2022/06/23 05:08:32;;;;;;;;;;;;;;;18.40;91.33;98919.81;7792856;30;19989;-77
2022/06/23 05:12:39;;;;;;;;;;;;;;;18.58;90.63;98926.91;7789184;30;20140;-77
2022/06/23 05:16:43;;;;;;;;;;;;;;;18.79;89.52;98934.78;7777521;30;19966;-77
2022/06/23 05:21:05;;;;;;;;;;;;;;;19.01;88.48;98941.63;7777878;30;20040;-77
2022/06/23 05:25:15;;;;;;;;;;;;;;;19.28;87.49;98933.38;7790758;30;20021;-77
2022/06/23 05:29:20;;;;;;;;;;;;;;;19.55;86.83;98940.00;7799054;30;20033;-77
2022/06/23 05:33:30;;;;;;;;;;;;;;;19.87;85.15;98945.47;7779438;30;20334;-77
2022/06/23 05:37:50;;;;;;;;;;;;;;;20.25;83.42;98942.69;7800652;30;19946;-77
2022/06/23 05:41:55;;;;;;;;;;;;;;;20.72;81.42;98945.56;7796679;30;19946;-77
2022/06/23 05:45:59;;;;;;;;;;;;;;;21.17;79.62;98952.78;7791517;30;19939;-76
2022/06/23 05:50:04;;;;;;;;;;;;;;;21.48;78.24;98949.34;7770321;30;20200;-75
2022/06/23 05:54:05;;;;;;;;;;;;;;;22.02;76.27;98955.91;7797747;30;19935;-78
2022/06/23 05:58:18;;;;;;;;;;;;;;;22.40;74.40;98965.19;7785210;30;19962;-77
2022/06/23 06:02:24;;;;;;;;;;;;;;;22.75;72.16;98958.63;7785483;30;20310;-76
2022/06/23 06:06:26;;;;;;;;;;;;;;;23.00;70.62;98952.75;7794560;30;20553;-78
2022/06/23 06:10:29;;;;;;;;;;;;;;;23.42;68.63;98961.56;7797482;30;19946;-78
2022/06/23 06:14:33;;;;;;;;;;;;;;;23.81;67.47;98966.97;7782676;30;19945;-76
2022/06/23 06:18:36;;;;;;;;;;;;;;;24.08;64.50;98961.66;7798374;30;20330;-75
2022/06/23 06:22:41;;;;;;;;;;;;;;;24.59;63.06;98969.72;7796517;30;19947;-77
2022/06/23 06:26:45;;;;;;;;;;;;;;;24.96;61.95;98962.72;7799061;30;20320;-75
2022/06/23 06:30:57;;;;;;;;;;;;;;;25.28;60.57;98970.25;7780365;30;20037;-76
2022/06/23 06:35:02;;;;;;;;;;;;;;;25.68;59.12;98970.94;7799147;30;20504;-77
2022/06/23 06:39:26;;;;;;;;;;;;;;;25.88;57.71;98969.47;7792031;30;19942;-78
2022/06/23 06:43:31;;;;;;;;;;;;;;;25.98;57.93;98966.94;7801703;30;19939;-76
2022/06/23 06:47:34;;;;;;;;;;;;;;;25.98;57.60;98961.63;7772291;30;19934;-76
2022/06/23 06:51:41;;;;;;;;;;;;;;;26.01;57.61;98956.91;7786252;30;20042;-76
2022/06/23 06:55:50;;;;;;;;;;;;;;;26.19;57.24;98958.19;7757414;30;19939;-76
2022/06/23 06:59:52;;;;;;;;;;;;;;;26.37;56.71;98965.78;7774779;30;20046;-76
2022/06/23 07:03:54;;;;;;;;;;;;;;;26.36;55.59;98972.06;7784905;30;19943;-76
2022/06/23 07:08:08;;;;;;;;;;;;;;;26.47;55.31;98966.78;7789203;30;20022;-77
2022/06/23 07:12:19;;;;;;;;;;;;;;;26.66;54.93;98963.56;7807570;30;19939;-78
2022/06/23 07:16:24;;;;;;;;;;;;;;;26.72;54.20;98963.06;7797943;30;19946;-78
2022/06/23 07:20:28;;;;;;;;;;;;;;;26.58;54.37;98955.34;7797030;30;19934;-78
2022/06/23 07:24:41;;;;;;;;;;;;;;;26.72;55.13;98963.06;7801328;30;20038;-77
2022/06/23 07:28:47;;;;;;;;;;;;;;;26.79;54.49;98959.84;7797998;30;19979;-77
2022/06/23 07:32:59;;;;;;;;;;;;;;;26.82;54.29;98952.56;7799706;30;20033;-78
2022/06/23 07:37:05;;;;;;;;;;;;;;;26.95;55.24;98958.63;7777590;30;19935;-77
2022/06/23 07:41:12;;;;;;;;;;;;;;;27.24;54.01;98957.19;7803914;30;19974;-78
2022/06/23 07:45:18;;;;;;;;;;;;;;;27.30;53.13;98946.06;7790708;30;20000;-79
2022/06/23 07:49:19;;;;;;;;;;;;;;;27.37;53.36;98933.06;7796755;30;19942;-78
2022/06/23 07:53:23;;;;;;;;;;;;;;;27.43;52.56;98923.72;7786815;30;20385;-78
2022/06/23 07:57:28;;;;;;;;;;;;;;;27.67;52.62;98932.44;7784161;30;20017;-78
2022/06/23 08:01:36;;;;;;;;;;;;;;;27.82;52.60;98930.31;7769927;30;19946;-77
2022/06/23 08:05:41;;;;;;;;;;;;;;;27.94;51.89;98938.16;7787676;30;19939;-77
2022/06/23 08:09:48;;;;;;;;;;;;;;;28.15;51.58;98927.50;7778482;30;19935;-78
2022/06/23 08:13:51;;;;;;;;;;;;;;;28.34;51.35;98925.97;7785310;30;20021;-79
2022/06/23 08:18:02;;;;;;;;;;;;;;;28.38;51.05;98925.59;7800417;30;19951;-79
2022/06/23 08:22:11;;;;;;;;;;;;;;;28.40;50.18;98928.13;7787652;30;19930;-79
2022/06/23 08:26:12;;;;;;;;;;;;;;;28.16;51.86;98925.66;7801011;30;19992;-78
2022/06/23 08:30:16;;;;;;;;;;;;;;;28.13;51.22;98916.09;7797767;30;19983;-78
2022/06/23 08:34:18;;;;;;;;;;;;;;;27.83;51.55;98926.66;7783492;30;19934;-78
2022/06/23 08:38:22;;;;;;;;;;;;;;;27.59;52.42;98922.34;7786091;30;19992;-78
2022/06/23 08:42:28;;;;;;;;;;;;;;;27.87;53.29;98914.78;7798665;30;20049;-78
2022/06/23 08:46:36;;;;;;;;;;;;;;;28.46;51.49;98912.41;7786865;30;20024;-78
2022/06/23 08:50:44;;;;;;;;;;;;;;;28.71;51.50;98918.31;7803057;30;19961;-79
2022/06/23 08:54:51;;;;;;;;;;;;;;;28.64;51.60;98911.81;7783060;30;19939;-79
2022/06/23 08:59:11;;;;;;;;;;;;;;;29.08;50.64;98914.13;7802005;30;19935;-78
2022/06/23 09:03:32;;;;;;;;;;;;;;;28.85;49.52;98912.63;7778779;30;19935;-78
2022/06/23 09:07:33;;;;;;;;;;;;;;;28.06;50.55;98917.59;7787978;30;20018;-78
2022/06/23 09:12:01;;;;;;;;;;;;;;;27.78;52.37;98910.19;7795563;30;19935;-78
2022/06/23 09:16:02;;;;;;;;;;;;;;;27.88;52.35;98906.63;7784170;30;19935;-78
2022/06/23 09:20:10;;;;;;;;;;;;;;;27.83;52.07;98907.97;7803103;30;19935;-78
2022/06/23 09:24:11;;;;;;;;;;;;;;;27.86;52.98;98894.41;7798162;30;20033;-78
2022/06/23 09:28:24;;;;;;;;;;;;;;;28.27;51.81;98891.78;7785923;30;19970;-78
2022/06/23 09:32:49;;;;;;;;;;;;;;;28.75;50.60;98895.72;7794132;30;19986;-78
2022/06/23 09:36:50;;;;;;;;;;;;;;;29.02;48.83;98887.09;7753602;30;19935;-78
2022/06/23 09:41:00;;;;;;;;;;;;;;;29.40;48.94;98876.50;7785303;30;19966;-78
2022/06/23 09:45:20;;;;;;;;;;;;;;;29.81;47.94;98877.28;7768584;30;19942;-78
2022/06/23 09:49:35;;;;;;;;;;;;;;;30.13;47.17;98879.66;7767445;30;20586;-78
2022/06/23 09:54:02;;;;;;;;;;;;;;;30.15;46.46;98869.66;7748073;30;19964;-78
2022/06/23 09:58:22;;;;;;;;;;;;;;;30.25;45.60;98875.00;7751473;30;19975;-78
2022/06/23 10:02:33;;;;;;;;;;;;;;;30.53;45.28;98876.78;7769897;30;19967;-78
2022/06/23 10:06:52;;;;;;;;;;;;;;;30.38;45.23;98865.69;7771505;30;20493;-78
2022/06/23 10:10:59;;;;;;;;;;;;;;;30.59;44.57;98873.50;7767956;30;19945;-78
2022/06/23 10:15:01;;;;;;;;;;;;;;;30.49;43.92;98882.56;7766784;30;19978;-77
2022/06/23 10:19:09;;;;;;;;;;;;;;;30.49;43.35;98874.50;7780450;30;20232;-78
2022/06/23 10:23:29;;;;;;;;;;;;;;;30.53;44.35;98866.06;7774975;30;20022;-77
2022/06/23 10:27:51;;;;;;;;;;;;;;;29.82;43.87;98870.94;7755414;30;19965;-78
2022/06/23 10:31:52;;;;;;;;;;;;;;;29.51;46.49;98858.66;7727289;30;19935;-78
2022/06/23 10:36:02;;;;;;;;;;;;;;;29.88;45.91;98854.31;7780844;30;19934;-77
2022/06/23 10:40:06;;;;;;;;;;;;;;;30.28;44.73;98847.94;7769520;30;20034;-78
2022/06/23 10:44:28;;;;;;;;;;;;;;;30.61;43.92;98839.38;7788454;30;19949;-78
2022/06/23 10:48:42;;;;;;;;;;;;;;;30.75;42.73;98821.97;7791304;30;20033;-77
2022/06/23 10:53:07;;;;;;;;;;;;;;;30.87;42.18;98826.13;7787192;30;19981;-77
2022/06/23 10:57:14;;;;;;;;;;;;;;;31.25;42.11;98832.31;7775308;30;19974;-77
2022/06/23 11:01:34;;;;;;;;;;;;;;;31.22;39.98;98820.03;7769268;30;19989;-77
2022/06/23 11:05:54;;;;;;;;;;;;;;;31.37;39.39;98817.66;7789378;30;19986;-77
2022/06/23 11:10:08;;;;;;;;;;;;;;;31.48;40.27;98816.59;7784126;30;19970;-77
2022/06/23 11:14:18;;;;;;;;;;;;;;;31.21;41.12;98804.09;7787968;30;19942;-77
2022/06/23 11:18:43;;;;;;;;;;;;;;;31.47;41.22;98791.59;7785228;30;20520;-77
2022/06/23 11:22:50;;;;;;;;;;;;;;;31.70;40.33;98804.53;7768139;30;19934;-77
2022/06/23 11:27:00;;;;;;;;;;;;;;;31.72;39.60;98790.00;7789170;30;19977;-77
2022/06/23 11:31:20;;;;;;;;;;;;;;;31.51;39.70;98794.81;7782336;30;20340;-76
2022/06/23 11:35:26;;;;;;;;;;;;;;;31.02;39.71;98788.09;7783680;30;20415;-77
2022/06/23 11:39:37;;;;;;;;;;;;;;;30.88;39.35;98781.38;7784332;30;19966;-77
2022/06/23 11:43:46;;;;;;;;;;;;;;;30.95;40.20;98766.41;7783861;30;20661;-77
2022/06/23 11:48:12;;;;;;;;;;;;;;;31.09;39.68;98775.78;7779591;30;20407;-76
2022/06/23 11:52:24;;;;;;;;;;;;;;;31.33;39.42;98761.78;7787302;30;20616;-76
2022/06/23 11:56:45;;;;;;;;;;;;;;;31.21;38.38;98762.00;7791996;30;20905;-76
2022/06/23 12:00:55;;;;;;;;;;;;;;;31.19;39.58;98753.28;7779952;30;19939;-76
2022/06/23 12:05:06;;;;;;;;;;;;;;;31.37;38.38;98747.91;7793349;30;19934;-76
2022/06/23 12:09:07;;;;;;;;;;;;;;;31.66;39.19;98734.22;7795252;30;19945;-76
2022/06/23 12:13:09;;;;;;;;;;;;;;;32.02;38.08;98728.78;7792865;30;20581;-77
2022/06/23 12:17:24;;;;;;;;;;;;;;;32.26;37.29;98733.44;7788525;30;19934;-77
2022/06/23 12:21:44;;;;;;;;;;;;;;;32.46;36.39;98727.66;7778175;30;19945;-77
2022/06/23 12:25:50;;;;;;;;;;;;;;;32.81;36.87;98723.13;7794864;30;19957;-77
2022/06/23 12:29:52;;;;;;;;;;;;;;;33.09;37.62;98712.91;7798799;30;19934;-77
2022/06/23 12:33:58;;;;;;;;;;;;;;;33.22;36.32;98715.97;7781012;30;19935;-77
2022/06/23 12:38:06;;;;;;;;;;;;;;;32.90;35.98;98715.91;7779462;30;20451;-77
2022/06/23 12:42:11;;;;;;;;;;;;;;;32.33;36.19;98705.81;7801906;30;19992;-78
2022/06/23 12:46:13;;;;;;;;;;;;;;;31.74;37.34;98704.75;7784024;30;20311;-76
2022/06/23 12:50:23;;;;;;;;;;;;;;;31.27;37.49;98698.88;7797183;30;20008;-76
2022/06/23 12:54:43;;;;;;;;;;;;;;;30.81;37.98;98683.81;7795558;30;19934;-76
2022/06/23 12:58:46;;;;;;;;;;;;;;;30.92;39.34;98675.53;7797618;30;20576;-75
2022/06/23 13:02:48;;;;;;;;;;;;;;;31.33;38.39;98673.25;7793682;30;19935;-76
2022/06/23 13:07:12;;;;;;;;;;;;;;;31.85;37.48;98676.81;7799786;30;21238;-76
2022/06/23 13:11:17;;;;;;;;;;;;;;;32.04;35.34;98668.53;7778896;30;19977;-76
2022/06/23 13:15:28;;;;;;;;;;;;;;;31.85;36.20;98658.00;7781522;30;19962;-76
2022/06/23 13:19:34;;;;;;;;;;;;;;;31.56;36.00;98655.63;7793103;30;19945;-76
2022/06/23 13:24:01;;;;;;;;;;;;;;;31.74;36.29;98658.28;7781855;30;20423;-76
2022/06/23 13:28:04;;;;;;;;;;;;;;;31.69;36.41;98658.72;7796719;30;20448;-76
2022/06/23 13:32:16;;;;;;;;;;;;;;;31.36;36.65;98648.78;7781284;30;19961;-77
2022/06/23 13:36:36;;;;;;;;;;;;;;;31.21;37.09;98646.66;7797344;30;19941;-75
2022/06/23 13:40:42;;;;;;;;;;;;;;;31.65;36.42;98646.63;7764616;30;19966;-76
2022/06/23 13:44:49;;;;;;;;;;;;;;;32.40;36.29;98633.41;7775050;30;19942;-76
2022/06/23 13:49:08;;;;;;;;;;;;;;;32.54;32.32;98640.00;7792739;30;20345;-76
2022/06/23 13:53:22;;;;;;;;;;;;;;;32.04;32.67;98622.00;7790969;30;20001;-76
2022/06/23 13:57:27;;;;;;;;;;;;;;;31.94;34.97;98626.66;7800325;30;20369;-76
2022/06/23 14:01:41;;;;;;;;;;;;;;;32.10;35.40;98615.97;7769072;30;19934;-76
2022/06/23 14:05:51;;;;;;;;;;;;;;;32.07;35.88;98616.31;7786231;30;19935;-76
2022/06/23 14:09:52;;;;;;;;;;;;;;;31.85;35.81;98617.75;7792633;30;19981;-75
2022/06/23 14:14:00;;;;;;;;;;;;;;;31.54;36.75;98614.69;7773402;30;19935;-75
2022/06/23 14:18:12;;;;;;;;;;;;;;;31.37;36.62;98604.84;7786690;30;19989;-75
2022/06/23 14:22:14;;;;;;;;;;;;;;;31.58;36.38;98595.41;7788916;30;19973;-75
2022/06/23 14:26:30;;;;;;;;;;;;;;;32.07;37.59;98592.97;7789420;30;20034;-76
2022/06/23 14:30:44;;;;;;;;;;;;;;;32.35;34.76;98584.72;7774731;30;19935;-75
2022/06/23 14:34:45;;;;;;;;;;;;;;;32.71;35.95;98590.63;7792899;30;20021;-75
2022/06/23 14:39:05;;;;;;;;;;;;;;;32.90;33.93;98576.88;7783057;30;19946;-76
2022/06/23 14:43:25;;;;;;;;;;;;;;;32.84;32.26;98571.31;7788515;30;19971;-75
2022/06/23 14:47:49;;;;;;;;;;;;;;;32.33;33.31;98566.06;7787255;30;19971;-75
2022/06/23 14:51:53;;;;;;;;;;;;;;;32.20;33.74;98565.66;7775058;30;19935;-75
2022/06/23 14:56:14;;;;;;;;;;;;;;;32.08;34.91;98562.41;7788638;30;19966;-76
2022/06/23 15:00:23;;;;;;;;;;;;;;;32.19;33.58;98566.66;7793717;30;20016;-75
2022/06/23 15:04:29;;;;;;;;;;;;;;;32.49;34.16;98565.22;7793436;30;20283;-76
2022/06/23 15:08:39;;;;;;;;;;;;;;;32.77;33.69;98546.94;7788563;30;19945;-76
2022/06/23 15:12:53;;;;;;;;;;;;;;;32.87;34.44;98541.44;7789447;30;20052;-76
2022/06/23 15:16:59;;;;;;;;;;;;;;;33.09;33.68;98526.44;7789293;30;19935;-75
2022/06/23 15:25:36;;;;;;;;;;;;;;;33.04;33.70;98543.94;7788832;30;19934;-75
2022/06/23 15:29:45;;;;;;;;;;;;;;;33.14;33.05;98532.13;7791011;30;20440;-76
2022/06/23 15:33:53;;;;;;;;;;;;;;;33.37;33.71;98532.28;7786794;30;19985;-76
2022/06/23 15:38:13;;;;;;;;;;;;;;;33.02;33.44;98519.03;7798908;30;20033;-75
2022/06/23 15:42:37;;;;;;;;;;;;;;;32.66;34.17;98512.31;7797762;30;19980;-76
2022/06/23 15:46:50;;;;;;;;;;;;;;;32.34;35.15;98508.63;7794456;30;20326;-76
2022/06/23 15:51:02;;;;;;;;;;;;;;;32.13;35.52;98514.41;7802264;30;19997;-76
2022/06/23 15:55:07;;;;;;;;;;;;;;;31.93;35.88;98513.03;7801946;30;19934;-76
2022/06/23 15:59:08;;;;;;;;;;;;;;;31.75;36.19;98502.41;7801719;30;19970;-77
2022/06/23 16:03:13;;;;;;;;;;;;;;;31.67;37.47;98507.72;7777918;30;20050;-77
2022/06/23 16:07:19;;;;;;;;;;;;;;;31.56;37.39;98502.63;7775394;30;20022;-76
2022/06/23 16:11:27;;;;;;;;;;;;;;;31.43;38.61;98495.03;7791613;30;19935;-77
2022/06/23 16:15:37;;;;;;;;;;;;;;;31.18;37.86;98494.06;7783222;30;19978;-77
2022/06/23 16:19:51;;;;;;;;;;;;;;;31.08;38.57;98490.63;7777380;30;19934;-77
2022/06/23 16:23:56;;;;;;;;;;;;;;;31.20;39.47;98485.84;7793638;30;19934;-77
2022/06/23 16:28:04;;;;;;;;;;;;;;;31.09;38.92;98484.28;7776661;30;19946;-74
2022/06/23 16:32:12;;;;;;;;;;;;;;;30.94;38.43;98469.75;7794691;30;19977;-74
2022/06/23 16:36:19;;;;;;;;;;;;;;;31.03;38.92;98474.16;7795864;30;19978;-75
2022/06/23 16:40:21;;;;;;;;;;;;;;;31.39;37.49;98471.34;7789867;30;19935;-74
2022/06/23 16:44:32;;;;;;;;;;;;;;;31.33;37.22;98474.69;7794722;30;20408;-75
2022/06/23 16:48:41;;;;;;;;;;;;;;;31.13;37.49;98466.84;7787751;30;19945;-75
2022/06/23 16:53:09;;;;;;;;;;;;;;;30.90;36.64;98455.84;7794674;30;19934;-74
2022/06/23 16:57:10;;;;;;;;;;;;;;;30.70;36.72;98448.97;7792009;30;20053;-74
2022/06/23 17:01:12;;;;;;;;;;;;;;;30.51;37.50;98452.66;7787383;30;19946;-74
2022/06/23 17:05:42;;;;;;;;;;;;;;;30.41;38.03;98441.22;7792723;30;19934;-74
2022/06/23 17:09:53;;;;;;;;;;;;;;;30.28;37.24;98438.09;7775330;30;19952;-74
2022/06/23 17:13:56;;;;;;;;;;;;;;;30.12;38.29;98432.59;7796278;30;19934;-77
2022/06/23 17:18:10;;;;;;;;;;;;;;;29.95;38.23;98423.53;7796985;30;19941;-76
2022/06/23 17:22:17;;;;;;;;;;;;;;;29.83;38.50;98428.28;7793164;30;20311;-76
2022/06/23 17:26:48;;;;;;;;;;;;;;;29.69;39.40;98428.81;7797668;30;20049;-77
2022/06/23 17:30:54;;;;;;;;;;;;;;;29.48;40.42;98427.25;7728246;30;20438;-77
2022/06/23 17:35:04;;;;;;;;;;;;;;;29.36;40.62;98432.91;7783054;30;19935;-77
2022/06/23 17:43:46;;;;;;;;;;;;;;;29.21;43.40;98442.41;7790188;30;20001;-77
2022/06/23 17:47:50;;;;;;;;;;;;;;;29.04;42.59;98447.53;7779328;30;19946;-77
2022/06/23 17:51:53;;;;;;;;;;;;;;;28.92;44.59;98447.88;7798183;30;20050;-77
2022/06/23 17:55:54;;;;;;;;;;;;;;;28.68;45.02;98445.63;7779908;30;20022;-77
2022/06/23 17:59:58;;;;;;;;;;;;;;;28.50;46.93;98448.19;7780177;30;20517;-77
2022/06/23 18:04:00;;;;;;;;;;;;;;;28.38;46.69;98458.22;7788296;30;19935;-77
2022/06/23 18:08:05;;;;;;;;;;;;;;;28.21;47.57;98456.22;7762623;30;19989;-76
2022/06/23 18:12:08;;;;;;;;;;;;;;;27.93;48.84;98458.72;7788754;30;20415;-76
2022/06/23 18:16:19;;;;;;;;;;;;;;;27.79;48.62;98460.94;7790746;30;20336;-77
2022/06/23 18:20:23;;;;;;;;;;;;;;;27.71;49.88;98460.81;7793594;30;19935;-76
2022/06/23 18:24:29;;;;;;;;;;;;;;;27.55;50.26;98462.13;7794982;30;20273;-77
2022/06/23 18:28:31;;;;;;;;;;;;;;;27.42;50.66;98453.53;7790506;30;20218;-76
2022/06/23 18:32:47;;;;;;;;;;;;;;;27.32;51.10;98447.34;7788410;30;19930;-76
2022/06/23 18:36:51;;;;;;;;;;;;;;;26.99;51.93;98438.63;7794930;30;20696;-77
2022/06/23 18:40:55;;;;;;;;;;;;;;;26.72;52.83;98433.84;7779053;30;19935;-77
2022/06/23 18:44:59;;;;;;;;;;;;;;;26.53;53.16;98430.22;7795476;30;19958;-77
2022/06/23 18:49:13;;;;;;;;;;;;;;;26.35;53.95;98433.47;7777559;30;19953;-77
2022/06/23 18:53:34;;;;;;;;;;;;;;;26.19;54.42;98444.53;7775094;30;20546;-76
2022/06/23 18:57:37;;;;;;;;;;;;;;;26.00;54.79;98448.84;7790877;30;20463;-76
2022/06/23 19:01:58;;;;;;;;;;;;;;;25.73;55.07;98462.59;7784971;30;20022;-76
2022/06/23 19:06:08;;;;;;;;;;;;;;;25.53;55.66;98477.47;7768821;30;19974;-76
2022/06/23 19:10:17;;;;;;;;;;;;;;;25.40;56.46;98485.59;7797160;30;20029;-75
2022/06/23 19:14:37;;;;;;;;;;;;;;;25.32;56.80;98485.34;7796039;30;20065;-77
2022/06/23 19:19:03;;;;;;;;;;;;;;;25.28;57.28;98478.56;7793565;30;19977;-76
2022/06/23 19:23:37;;;;;;;;;;;;;;;25.23;57.90;98489.56;7797519;30;19970;-75
2022/06/23 19:27:50;;;;;;;;;;;;;;;24.99;55.41;98548.13;7754987;30;19941;-77
2022/06/23 19:31:51;;;;;;;;;;;;;;;24.92;45.87;98577.88;7798297;30;19972;-76
2022/06/23 19:36:02;;;;;;;;;;;;;;;24.77;44.34;98577.22;7795672;30;20350;-77
2022/06/23 19:40:20;;;;;;;;;;;;;;;24.44;44.78;98595.72;7798123;30;20294;-76
2022/06/23 19:44:40;;;;;;;;;;;;;;;24.19;46.19;98623.97;7800000;30;20091;-76
2022/06/23 19:48:43;;;;;;;;;;;;;;;23.84;47.10;98617.69;7796221;30;19935;-75
2022/06/23 19:52:45;;;;;;;;;;;;;;;23.53;48.27;98598.66;7798647;30;19948;-76
2022/06/23 19:56:53;;;;;;;;;;;;;;;23.33;49.09;98596.50;7794657;30;20050;-76
2022/06/23 20:01:07;;;;;;;;;;;;;;;23.11;50.03;98605.94;7797189;30;19945;-76
2022/06/23 20:05:12;;;;;;;;;;;;;;;22.80;51.56;98617.72;7796218;30;19942;-75
2022/06/23 20:09:26;;;;;;;;;;;;;;;22.52;53.03;98608.09;7798857;30;19989;-76
2022/06/23 20:13:57;;;;;;;;;;;;;;;22.25;54.44;98609.88;7768780;30;19939;-76
2022/06/23 20:17:59;;;;;;;;;;;;;;;22.04;56.37;98606.81;7765489;30;19974;-76
2022/06/23 20:22:00;;;;;;;;;;;;;;;21.94;58.28;98605.69;7790427;30;19985;-76
2022/06/23 20:26:20;;;;;;;;;;;;;;;21.71;60.00;98618.53;7796635;30;20022;-76
2022/06/23 20:30:25;;;;;;;;;;;;;;;21.39;63.10;98614.41;7788787;30;19939;-75
2022/06/23 20:34:33;;;;;;;;;;;;;;;20.92;65.67;98625.97;7791813;30;19943;-74
2022/06/23 20:38:41;;;;;;;;;;;;;;;20.55;67.56;98632.53;7793040;30;19934;-75
2022/06/23 20:43:01;;;;;;;;;;;;;;;20.39;68.96;98652.78;7791570;30;19939;-75
2022/06/23 20:47:25;;;;;;;;;;;;;;;20.33;71.59;98696.16;7787299;30;19935;-75
2022/06/23 20:51:35;;;;;;;;;;;;;;;20.17;71.20;98697.94;7774454;30;20647;-75
2022/06/23 20:55:47;;;;;;;;;;;;;;;20.18;72.76;98702.28;7794970;30;20023;-74
2022/06/23 20:59:56;;;;;;;;;;;;;;;20.14;72.58;98693.69;7782388;30;19945;-74
2022/06/23 21:04:04;;;;;;;;;;;;;;;20.12;74.43;98700.84;7792369;30;20407;-73
2022/06/23 21:08:05;;;;;;;;;;;;;;;20.06;75.10;98685.31;7794337;30;20567;-73
2022/06/23 21:12:24;;;;;;;;;;;;;;;19.86;74.75;98681.13;7790751;30;19974;-74
2022/06/23 21:16:25;;;;;;;;;;;;;;;19.76;78.43;98689.63;7794406;30;20022;-72
2022/06/23 21:20:52;;;;;;;;;;;;;;;19.73;80.57;98703.78;7803514;30;19935;-74
2022/06/23 21:25:27;;;;;;;;;;;;;;;19.59;80.33;98719.47;7797081;30;19941;-73
2022/06/23 21:29:39;;;;;;;;;;;;;;;19.43;79.53;98722.03;7795237;30;19992;-74
2022/06/23 21:33:46;;;;;;;;;;;;;;;19.10;80.33;98706.13;7778620;30;19935;-73
2022/06/23 21:37:51;;;;;;;;;;;;;;;19.02;81.31;98682.81;7792787;30;19939;-76
2022/06/23 21:41:59;;;;;;;;;;;;;;;18.99;82.39;98693.50;7795320;30;19935;-73
2022/06/23 21:46:22;;;;;;;;;;;;;;;19.01;83.40;98675.00;7791779;30;20372;-73
2022/06/23 21:50:43;;;;;;;;;;;;;;;19.08;84.60;98686.94;7794207;30;19982;-73
2022/06/23 21:54:58;;;;;;;;;;;;;;;19.19;85.96;98674.06;7791224;30;19989;-73